createdAt,value
2023-05-03T00:13:40.974Z,34
2023-05-03T00:44:45.445Z,30
2023-05-03T01:15:47.355Z,28
2023-05-03T01:46:54.704Z,28
2023-05-03T02:18:01.393Z,26
2023-05-03T02:49:07.927Z,24
2023-05-03T03:20:13.270Z,23
2023-05-03T03:51:18.499Z,23
2023-05-03T04:22:24.348Z,20
2023-05-03T04:53:31.721Z,20
2023-05-03T05:24:37.677Z,19
2023-05-03T05:55:44.633Z,18
2023-05-03T06:26:51.775Z,15
2023-05-03T08:43:21.464Z,11
2023-05-03T09:35:20.579Z,10
2023-05-03T10:06:17.491Z,8
2023-05-03T10:37:24.332Z,8
2023-05-03T11:08:27.989Z,7
2023-05-03T11:39:36.852Z,7
2023-05-03T12:10:42.875Z,6
2023-05-03T12:41:52.211Z,7
2023-05-03T13:13:00.385Z,6
2023-05-03T13:47:46.534Z,6
2023-05-03T14:18:47.374Z,5
2023-05-03T15:22:30.218Z,4
2023-05-03T15:53:33.524Z,4
2023-05-03T16:24:45.644Z,5
2023-05-03T16:55:53.880Z,5
2023-05-03T17:26:48.346Z,6
2023-05-03T17:57:55.092Z,6
2023-05-03T18:29:01.591Z,5
2023-05-03T19:00:02.574Z,7
2023-05-03T19:31:05.010Z,7
2023-05-03T20:02:13.316Z,5
2023-05-03T20:33:20.373Z,5
2023-05-03T21:05:31.942Z,5
2023-05-03T21:37:38.346Z,5
2023-05-03T22:09:53.102Z,4
2023-05-03T22:40:53.254Z,5
2023-05-03T23:11:57.922Z,4
2023-05-03T23:43:02.508Z,4
